createdAt,value
2022-08-14T00:02:01.490Z,22.70
2022-08-14T00:04:32.045Z,22.70
2022-08-14T00:07:03.766Z,22.70
2022-08-14T00:09:33.058Z,22.60
2022-08-14T00:12:03.842Z,22.60
2022-08-14T00:14:32.018Z,22.60
2022-08-14T00:17:01.313Z,22.60
2022-08-14T00:19:29.634Z,22.50
2022-08-14T00:22:00.075Z,22.50
2022-08-14T00:24:30.941Z,22.40
2022-08-14T00:27:02.174Z,22.40
2022-08-14T00:29:40.304Z,22.30
2022-08-14T00:32:53.058Z,22.30
2022-08-14T00:35:01.759Z,22.30
2022-08-14T00:37:30.279Z,22.30
2022-08-14T00:40:00.954Z,22.30
2022-08-14T00:42:54.894Z,22.20
2022-08-14T00:45:20.245Z,22.20
2022-08-14T00:47:50.854Z,22.20
2022-08-14T00:50:21.987Z,22.10
2022-08-14T00:52:52.338Z,22.10
2022-08-14T00:55:23.361Z,22.00
2022-08-14T00:58:12.053Z,22.00
2022-08-14T01:00:47.375Z,22.00
2022-08-14T01:03:20.263Z,22.00
2022-08-14T01:05:53.249Z,22.00
2022-08-14T01:08:51.814Z,21.90
2022-08-14T01:11:19.528Z,21.90
2022-08-14T01:13:55.802Z,21.90
2022-08-14T01:16:31.608Z,21.80
2022-08-14T01:19:19.601Z,21.80
2022-08-14T01:21:52.938Z,21.80
2022-08-14T01:24:30.267Z,21.70
2022-08-14T01:27:04.899Z,21.70
2022-08-14T01:30:00.608Z,21.70
2022-08-14T01:32:26.635Z,21.70
2022-08-14T01:35:19.131Z,21.60
2022-08-14T01:37:56.588Z,21.60
2022-08-14T01:40:33.152Z,21.60
2022-08-14T01:43:09.043Z,21.50
2022-08-14T01:45:40.491Z,21.50
2022-08-14T01:48:13.554Z,21.50
2022-08-14T01:50:45.089Z,21.50
2022-08-14T01:53:14.714Z,21.50
2022-08-14T01:55:43.225Z,21.50
2022-08-14T01:58:20.193Z,21.50
2022-08-14T02:00:54.713Z,21.40
2022-08-14T02:03:29.938Z,21.40
2022-08-14T02:05:59.874Z,21.40
2022-08-14T02:08:38.161Z,21.40
2022-08-14T02:11:24.664Z,21.30
2022-08-14T02:14:00.020Z,21.40
2022-08-14T02:16:39.008Z,21.30
2022-08-14T02:19:11.227Z,21.30
2022-08-14T02:21:43.253Z,21.30
2022-08-14T02:24:40.473Z,21.20
2022-08-14T02:28:24.819Z,21.20
2022-08-14T02:30:00.826Z,21.10
2022-08-14T02:32:37.029Z,21.10
2022-08-14T02:35:21.829Z,21.10
2022-08-14T02:37:50.655Z,21.00
2022-08-14T02:40:32.269Z,21.00
2022-08-14T02:43:02.375Z,21.00
2022-08-14T02:45:38.040Z,21.00
2022-08-14T02:49:04.869Z,21.00
2022-08-14T02:51:02.613Z,21.00
2022-08-14T02:53:33.486Z,21.00
2022-08-14T02:56:30.912Z,20.90
2022-08-14T02:58:55.749Z,20.90
2022-08-14T03:01:31.477Z,20.80
2022-08-14T03:04:12.733Z,20.80
2022-08-14T03:06:57.455Z,20.80
2022-08-14T03:09:42.211Z,20.80
2022-08-14T03:12:31.661Z,20.80
2022-08-14T03:15:14.318Z,20.70
2022-08-14T03:17:56.940Z,20.70
2022-08-14T03:20:28.273Z,20.60
2022-08-14T03:23:00.328Z,20.60
2022-08-14T03:25:34.040Z,20.60
2022-08-14T03:28:14.886Z,20.60
2022-08-14T03:30:57.557Z,20.50
2022-08-14T03:33:37.500Z,20.50
2022-08-14T03:37:38.207Z,20.50
2022-08-14T03:39:11.748Z,20.50
2022-08-14T03:41:44.789Z,20.50
2022-08-14T03:45:25.561Z,20.50
2022-08-14T03:47:04.179Z,20.50
2022-08-14T03:49:34.023Z,20.40
2022-08-14T03:52:07.607Z,20.40
2022-08-14T03:54:52.622Z,20.50
2022-08-14T03:57:23.716Z,20.50
2022-08-14T03:59:53.763Z,20.50
2022-08-14T04:02:33.290Z,20.50
2022-08-14T04:05:08.198Z,20.50
2022-08-14T04:07:49.394Z,20.50
2022-08-14T04:10:31.831Z,20.40
2022-08-14T04:13:03.536Z,20.40
2022-08-14T04:15:56.336Z,20.40
2022-08-14T04:18:22.656Z,20.40
2022-08-14T04:20:54.520Z,20.40
2022-08-14T04:23:32.936Z,20.30
2022-08-14T04:26:03.000Z,20.30
2022-08-14T04:29:05.431Z,20.20
2022-08-14T04:32:56.394Z,20.20
2022-08-14T04:34:16.893Z,20.20
2022-08-14T04:36:59.690Z,20.20
2022-08-14T04:39:46.845Z,20.20
2022-08-14T04:42:32.747Z,20.20
2022-08-14T04:45:01.405Z,20.20
2022-08-14T04:47:53.775Z,20.20
2022-08-14T04:50:31.333Z,20.20
2022-08-14T04:53:12.889Z,20.20
2022-08-14T04:55:42.989Z,20.20
2022-08-14T04:58:21.234Z,20.20
2022-08-14T05:00:52.146Z,20.20
2022-08-14T05:03:25.256Z,20.20
2022-08-14T05:05:55.351Z,20.20
2022-08-14T05:08:32.220Z,20.20
2022-08-14T05:11:13.554Z,20.20
2022-08-14T05:16:32.438Z,20.30
2022-08-14T05:19:24.302Z,20.30
2022-08-14T05:21:57.031Z,20.40
2022-08-14T05:24:27.637Z,20.40
2022-08-14T05:26:55.968Z,20.40
2022-08-14T05:29:24.762Z,20.50
2022-08-14T05:31:58.045Z,20.60
2022-08-14T05:34:31.733Z,20.70
2022-08-14T05:37:03.277Z,20.70
2022-08-14T05:39:32.064Z,20.80
2022-08-14T05:42:00.846Z,20.90
2022-08-14T05:44:38.400Z,21.00
2022-08-14T05:47:07.507Z,21.10
2022-08-14T05:49:38.274Z,21.20
2022-08-14T05:52:09.807Z,21.30
2022-08-14T05:54:38.500Z,21.30
2022-08-14T05:57:06.761Z,21.30
2022-08-14T05:59:38.872Z,21.40
2022-08-14T06:02:10.039Z,21.40
2022-08-14T06:04:48.056Z,21.40
2022-08-14T06:07:18.196Z,21.40
2022-08-14T06:09:50.992Z,21.40
2022-08-14T06:12:31.304Z,21.40
2022-08-14T06:15:11.260Z,21.50
2022-08-14T06:17:58.726Z,21.50
2022-08-14T06:20:30.541Z,21.50
2022-08-14T06:22:59.282Z,21.60
2022-08-14T06:25:28.705Z,21.60
2022-08-14T06:28:00.901Z,21.60
2022-08-14T06:30:45.761Z,21.60
2022-08-14T06:33:16.445Z,21.70
2022-08-14T06:35:49.852Z,21.70
2022-08-14T06:38:19.533Z,21.70
2022-08-14T06:40:50.958Z,21.70
2022-08-14T06:43:27.095Z,21.80
2022-08-14T06:45:58.022Z,21.90
2022-08-14T06:48:29.071Z,22.00
2022-08-14T06:51:02.619Z,22.10
2022-08-14T06:53:31.647Z,22.10
2022-08-14T06:56:02.110Z,22.20
2022-08-14T06:58:32.324Z,22.20
2022-08-14T07:01:25.057Z,22.30
2022-08-14T07:04:22.796Z,22.30
2022-08-14T07:06:54.918Z,22.40
2022-08-14T07:09:27.979Z,22.40
2022-08-14T07:11:57.810Z,22.50
2022-08-14T07:14:26.405Z,22.50
2022-08-14T07:16:55.006Z,22.60
2022-08-14T07:19:23.734Z,22.70
2022-08-14T07:21:53.251Z,22.70
2022-08-14T07:24:31.147Z,22.80
2022-08-14T07:27:01.107Z,22.90
2022-08-14T07:29:29.400Z,22.90
2022-08-14T07:31:58.241Z,23.10
2022-08-14T07:34:40.847Z,23.10
2022-08-14T07:37:11.039Z,23.20
2022-08-14T07:39:39.255Z,23.20
2022-08-14T07:42:11.686Z,23.30
2022-08-14T07:44:45.882Z,23.40
2022-08-14T07:47:17.518Z,23.50
2022-08-14T07:49:55.831Z,23.50
2022-08-14T07:52:30.517Z,23.60
2022-08-14T07:55:02.310Z,23.70
2022-08-14T07:57:30.574Z,23.80
2022-08-14T07:59:58.702Z,23.90
2022-08-14T08:02:32.790Z,24.00
2022-08-14T08:05:02.630Z,24.10
2022-08-14T08:07:33.039Z,24.10
2022-08-14T08:10:46.804Z,24.20
2022-08-14T08:13:19.108Z,24.30
2022-08-14T08:15:54.828Z,24.40
2022-08-14T08:18:27.714Z,24.50
2022-08-14T08:20:59.305Z,24.60
2022-08-14T08:23:40.846Z,24.70
2022-08-14T08:26:19.646Z,24.70
2022-08-14T08:28:58.176Z,24.80
2022-08-14T08:31:32.860Z,24.90
2022-08-14T08:34:07.392Z,25.00
2022-08-14T08:36:46.640Z,25.20
2022-08-14T08:39:22.591Z,25.20
2022-08-14T08:41:53.212Z,25.30
2022-08-14T08:44:32.490Z,25.40
2022-08-14T08:47:06.218Z,25.50
2022-08-14T08:49:52.972Z,25.60
2022-08-14T08:52:31.960Z,25.70
2022-08-14T08:55:04.722Z,25.90
2022-08-14T08:57:37.471Z,26.00
2022-08-14T09:00:25.477Z,26.20
2022-08-14T09:02:57.512Z,26.40
2022-08-14T09:05:26.420Z,26.60
2022-08-14T09:07:56.407Z,26.90
2022-08-14T09:10:27.142Z,27.20
2022-08-14T09:12:56.213Z,27.40
2022-08-14T09:15:24.491Z,27.70
2022-08-14T09:17:54.652Z,28.10
2022-08-14T09:20:29.420Z,28.40
2022-08-14T09:23:00.167Z,28.70
2022-08-14T09:25:59.063Z,29.00
2022-08-14T09:28:19.797Z,29.40
2022-08-14T09:30:54.071Z,29.90
2022-08-14T09:33:55.786Z,30.20
2022-08-14T09:36:36.317Z,30.60
2022-08-14T09:39:21.120Z,31.00
2022-08-14T09:42:20.220Z,31.30
2022-08-14T09:45:16.604Z,31.60
2022-08-14T09:47:49.072Z,31.80
2022-08-14T09:50:26.842Z,32.10
2022-08-14T09:52:59.614Z,32.20
2022-08-14T09:55:41.337Z,32.50
2022-08-14T09:58:19.145Z,32.40
2022-08-14T10:00:52.809Z,32.40
2022-08-14T10:03:33.136Z,32.50
2022-08-14T10:06:10.681Z,32.50
2022-08-14T10:08:44.628Z,32.20
2022-08-14T10:11:23.600Z,31.80
2022-08-14T10:13:55.901Z,31.50
2022-08-14T10:16:33.630Z,31.40
2022-08-14T10:19:10.494Z,31.60
2022-08-14T10:21:58.457Z,31.60
2022-08-14T10:24:37.241Z,31.50
2022-08-14T10:27:17.076Z,31.50
2022-08-14T10:29:50.898Z,31.40
2022-08-14T10:32:36.188Z,31.50
2022-08-14T10:35:14.077Z,31.80
2022-08-14T10:37:48.753Z,32.30
2022-08-14T10:40:44.090Z,32.70
2022-08-14T10:43:23.986Z,32.70
2022-08-14T10:46:22.051Z,32.90
2022-08-14T10:49:00.297Z,33.20
2022-08-14T10:51:30.296Z,33.60
2022-08-14T10:54:35.070Z,33.40
2022-08-14T10:56:57.496Z,33.00
2022-08-14T10:59:31.354Z,32.70
2022-08-14T11:02:35.971Z,32.80
2022-08-14T11:05:13.225Z,33.10
2022-08-14T11:07:56.539Z,33.60
2022-08-14T11:10:28.032Z,34.00
2022-08-14T11:12:57.843Z,34.30
2022-08-14T11:15:32.344Z,34.20
2022-08-14T11:18:02.116Z,34.30
2022-08-14T11:20:32.733Z,34.40
2022-08-14T11:23:04.862Z,34.40
2022-08-14T11:25:44.314Z,34.60
2022-08-14T11:28:48.004Z,34.80
2022-08-14T11:31:15.115Z,35.00
2022-08-14T11:33:50.205Z,35.30
2022-08-14T11:36:19.007Z,35.50
2022-08-14T11:38:48.125Z,35.70
2022-08-14T11:41:17.626Z,35.70
2022-08-14T11:43:58.243Z,35.70
2022-08-14T11:46:37.792Z,35.80
2022-08-14T11:49:16.005Z,35.90
2022-08-14T11:51:54.787Z,35.90
2022-08-14T11:54:34.018Z,35.90
2022-08-14T11:57:04.566Z,35.80
2022-08-14T11:59:34.347Z,35.90
2022-08-14T12:03:00.214Z,35.90
2022-08-14T12:05:00.974Z,35.90
2022-08-14T12:07:33.499Z,35.90
2022-08-14T12:10:26.924Z,36.00
2022-08-14T12:12:54.859Z,35.90
2022-08-14T12:15:36.055Z,35.90
2022-08-14T12:18:04.601Z,35.90
2022-08-14T12:20:36.962Z,35.90
2022-08-14T12:23:07.969Z,35.70
2022-08-14T12:25:37.256Z,35.70
2022-08-14T12:28:27.205Z,35.70
2022-08-14T12:31:12.971Z,35.70
2022-08-14T12:33:46.910Z,35.60
2022-08-14T12:36:24.112Z,35.40
2022-08-14T12:38:55.445Z,35.30
2022-08-14T12:41:28.054Z,35.00
2022-08-14T12:44:04.804Z,34.60
2022-08-14T12:46:37.636Z,34.10
2022-08-14T12:49:11.439Z,33.90
2022-08-14T12:51:42.113Z,33.80
2022-08-14T12:54:27.139Z,33.60
2022-08-14T12:57:06.705Z,33.40
2022-08-14T12:59:42.776Z,33.10
2022-08-14T13:02:25.256Z,32.90
2022-08-14T13:04:56.634Z,32.60
2022-08-14T13:07:32.418Z,32.40
2022-08-14T13:10:12.792Z,32.20
2022-08-14T13:15:43.900Z,31.90
2022-08-14T13:18:15.648Z,31.80
2022-08-14T13:20:48.090Z,31.70
2022-08-14T13:23:31.642Z,31.60
2022-08-14T13:26:01.124Z,31.60
2022-08-14T13:28:34.123Z,31.60
2022-08-14T13:31:11.135Z,31.80
2022-08-14T13:33:41.243Z,32.00
2022-08-14T13:36:23.961Z,32.20
2022-08-14T13:39:01.581Z,32.30
2022-08-14T13:41:31.921Z,32.40
2022-08-14T13:44:05.405Z,32.40
2022-08-14T13:46:43.716Z,32.40
2022-08-14T13:49:14.906Z,32.40
2022-08-14T13:51:45.994Z,32.50
2022-08-14T13:54:18.574Z,32.60
2022-08-14T13:56:47.935Z,32.60
2022-08-14T13:59:20.420Z,32.60
2022-08-14T14:01:51.665Z,32.60
2022-08-14T14:04:20.654Z,32.50
2022-08-14T14:06:51.411Z,32.30
2022-08-14T14:09:32.725Z,32.40
2022-08-14T14:12:36.589Z,32.50
2022-08-14T14:15:01.756Z,32.60
2022-08-14T14:17:33.991Z,32.60
2022-08-14T14:20:04.503Z,32.60
2022-08-14T14:23:00.971Z,32.60
2022-08-14T14:25:41.198Z,32.50
2022-08-14T14:28:16.786Z,32.40
2022-08-14T14:30:57.253Z,32.30
2022-08-14T14:33:47.374Z,32.20
2022-08-14T14:36:20.936Z,32.20
2022-08-14T14:38:54.003Z,32.00
2022-08-14T14:41:25.092Z,31.90
2022-08-14T14:43:54.572Z,31.80
2022-08-14T14:46:36.296Z,31.70
2022-08-14T14:49:07.880Z,31.50
2022-08-14T14:51:41.124Z,31.40
2022-08-14T14:54:12.987Z,31.30
2022-08-14T14:56:47.656Z,31.20
2022-08-14T14:59:20.421Z,31.10
2022-08-14T15:01:51.469Z,31.10
2022-08-14T15:04:20.733Z,30.90
2022-08-14T15:06:50.033Z,30.90
2022-08-14T15:09:18.667Z,30.80
2022-08-14T15:11:50.454Z,30.80
2022-08-14T15:14:55.853Z,30.80
2022-08-14T15:17:08.776Z,30.80
2022-08-14T15:19:39.638Z,30.80
2022-08-14T15:22:10.683Z,30.70
2022-08-14T15:24:39.796Z,30.70
2022-08-14T15:27:09.612Z,30.60
2022-08-14T15:29:43.313Z,30.60
2022-08-14T15:32:12.002Z,30.50
2022-08-14T15:34:45.167Z,30.40
2022-08-14T15:37:22.969Z,30.40
2022-08-14T15:39:52.651Z,30.30
2022-08-14T15:42:23.496Z,30.30
2022-08-14T15:44:58.536Z,30.30
2022-08-14T15:47:31.872Z,30.30
2022-08-14T15:50:04.761Z,30.20
2022-08-14T15:52:44.971Z,30.20
2022-08-14T15:55:16.607Z,30.20
2022-08-14T15:58:01.736Z,30.20
2022-08-14T16:00:51.587Z,30.20
2022-08-14T16:03:27.597Z,30.20
2022-08-14T16:06:06.096Z,30.20
2022-08-14T16:08:40.071Z,30.20
2022-08-14T16:11:10.768Z,30.10
2022-08-14T16:13:44.283Z,30.10
2022-08-14T16:16:34.472Z,30.00
2022-08-14T16:19:07.411Z,30.00
2022-08-14T16:21:40.798Z,30.00
2022-08-14T16:24:31.157Z,30.00
2022-08-14T16:27:00.763Z,29.90
2022-08-14T16:29:32.914Z,29.80
2022-08-14T16:32:32.573Z,29.80
2022-08-14T16:35:08.325Z,29.70
2022-08-14T16:37:41.331Z,29.60
2022-08-14T16:40:13.724Z,29.60
2022-08-14T16:43:04.358Z,29.50
2022-08-14T16:45:34.795Z,29.50
2022-08-14T16:48:57.154Z,29.40
2022-08-14T16:51:06.709Z,29.40
2022-08-14T16:53:36.916Z,29.20
2022-08-14T16:56:23.620Z,29.30
2022-08-14T16:59:05.724Z,29.30
2022-08-14T17:01:35.679Z,29.20
2022-08-14T17:04:09.751Z,29.10
2022-08-14T17:06:55.087Z,29.10
2022-08-14T17:09:35.446Z,29.10
2022-08-14T17:12:07.991Z,29.10
2022-08-14T17:15:10.478Z,29.10
2022-08-14T17:17:58.426Z,29.10
2022-08-14T17:20:53.187Z,29.00
2022-08-14T17:23:17.326Z,29.10
2022-08-14T17:25:50.761Z,29.00
2022-08-14T17:28:50.575Z,29.10
2022-08-14T17:31:09.393Z,29.10
2022-08-14T17:33:40.525Z,29.10
2022-08-14T17:39:06.537Z,29.10
2022-08-14T17:41:43.429Z,29.10
2022-08-14T17:44:34.252Z,29.10
2022-08-14T17:47:14.695Z,29.00
2022-08-14T17:49:51.751Z,29.00
2022-08-14T17:52:34.339Z,29.10
2022-08-14T17:55:09.861Z,29.00
2022-08-14T17:57:42.763Z,29.00
2022-08-14T18:00:14.693Z,29.00
2022-08-14T18:02:51.000Z,29.00
2022-08-14T18:06:06.960Z,29.00
2022-08-14T18:08:32.170Z,29.00
2022-08-14T18:11:02.520Z,29.00
2022-08-14T18:13:50.228Z,29.00
2022-08-14T18:16:22.429Z,29.00
2022-08-14T18:18:52.025Z,29.00
2022-08-14T18:21:41.708Z,28.90
2022-08-14T18:24:28.653Z,29.00
2022-08-14T18:27:08.625Z,28.90
2022-08-14T18:29:55.246Z,28.80
2022-08-14T18:32:47.400Z,28.70
2022-08-14T18:35:45.305Z,28.70
2022-08-14T18:38:25.301Z,28.70
2022-08-14T18:40:56.149Z,28.70
2022-08-14T18:43:45.222Z,28.60
2022-08-14T18:46:36.973Z,28.60
2022-08-14T18:49:16.827Z,28.50
2022-08-14T18:51:47.023Z,28.50
2022-08-14T18:54:38.526Z,28.40
2022-08-14T18:57:08.891Z,28.40
2022-08-14T18:59:43.099Z,28.40
2022-08-14T19:02:43.359Z,28.40
2022-08-14T19:05:12.520Z,28.30
2022-08-14T19:07:41.341Z,28.30
2022-08-14T19:10:17.003Z,28.20
2022-08-14T19:13:05.351Z,28.20
2022-08-14T19:15:42.713Z,28.10
2022-08-14T19:18:28.193Z,28.10
2022-08-14T19:21:00.238Z,28.10
2022-08-14T19:23:42.217Z,28.00
2022-08-14T19:26:35.383Z,28.00
2022-08-14T19:29:23.645Z,27.90
2022-08-14T19:31:55.367Z,27.80
2022-08-14T19:34:52.264Z,27.80
2022-08-14T19:37:45.936Z,27.80
2022-08-14T19:40:19.688Z,27.70
2022-08-14T19:42:50.441Z,27.70
2022-08-14T19:45:18.855Z,27.60
2022-08-14T19:47:50.029Z,27.60
2022-08-14T19:50:30.463Z,27.60
2022-08-14T19:53:11.357Z,27.60
2022-08-14T19:55:45.435Z,27.60
2022-08-14T19:58:15.861Z,27.50
2022-08-14T20:00:55.990Z,27.50
2022-08-14T20:03:25.758Z,27.50
2022-08-14T20:06:14.350Z,27.40
2022-08-14T20:10:58.390Z,27.40
2022-08-14T20:12:00.830Z,27.30
2022-08-14T20:14:31.226Z,27.30
2022-08-14T20:17:05.986Z,27.20
2022-08-14T20:19:37.927Z,27.20
2022-08-14T20:22:36.629Z,27.10
2022-08-14T20:25:12.133Z,27.10
2022-08-14T20:27:44.073Z,27.00
2022-08-14T20:30:34.529Z,26.90
2022-08-14T20:33:07.231Z,26.80
2022-08-14T20:35:42.081Z,26.80
2022-08-14T20:38:31.325Z,26.80
2022-08-14T20:41:06.705Z,26.80
2022-08-14T20:43:55.831Z,26.70
2022-08-14T20:46:29.921Z,26.70
2022-08-14T20:49:00.242Z,26.60
2022-08-14T20:51:47.398Z,26.60
2022-08-14T20:54:33.518Z,26.60
2022-08-14T20:57:08.318Z,26.60
2022-08-14T20:59:43.367Z,26.60
2022-08-14T21:02:29.665Z,26.50
2022-08-14T21:05:00.683Z,26.40
2022-08-14T21:07:36.500Z,26.30
2022-08-14T21:10:33.010Z,26.30
2022-08-14T21:14:08.791Z,26.30
2022-08-14T21:15:57.429Z,26.20
2022-08-14T21:18:31.890Z,26.10
2022-08-14T21:21:07.470Z,26.00
2022-08-14T21:23:54.961Z,26.00
2022-08-14T21:26:50.907Z,25.90
2022-08-14T21:29:14.615Z,25.90
2022-08-14T21:31:55.141Z,25.80
2022-08-14T21:34:27.439Z,25.80
2022-08-14T21:37:07.824Z,25.80
2022-08-14T21:39:37.460Z,25.80
2022-08-14T21:42:06.994Z,25.80
2022-08-14T21:44:43.477Z,25.80
2022-08-14T21:47:13.018Z,25.80
2022-08-14T21:49:46.330Z,25.90
2022-08-14T21:52:51.959Z,25.90
2022-08-14T21:55:12.193Z,25.90
2022-08-14T21:58:51.171Z,25.90
2022-08-14T22:00:40.097Z,26.00
2022-08-14T22:03:13.641Z,26.00
2022-08-14T22:05:45.070Z,26.00
2022-08-14T22:08:14.381Z,26.00
2022-08-14T22:10:47.208Z,26.00
2022-08-14T22:13:24.685Z,26.00
2022-08-14T22:15:59.780Z,26.00
2022-08-14T22:18:30.388Z,26.00
2022-08-14T22:21:05.749Z,25.90
2022-08-14T22:23:35.509Z,25.90
2022-08-14T22:26:04.179Z,25.80
2022-08-14T22:28:33.711Z,25.80
2022-08-14T22:31:10.075Z,25.80
2022-08-14T22:33:39.922Z,25.80
2022-08-14T22:36:26.817Z,25.80
2022-08-14T22:39:02.977Z,25.80
2022-08-14T22:41:36.670Z,25.80
2022-08-14T22:44:15.002Z,25.80
2022-08-14T22:46:45.302Z,25.70
2022-08-14T22:49:16.367Z,25.70
2022-08-14T22:52:32.600Z,25.60
2022-08-14T22:54:56.172Z,25.60
2022-08-14T22:57:37.351Z,25.50
2022-08-14T23:00:14.716Z,25.50
2022-08-14T23:02:44.929Z,25.50
2022-08-14T23:05:15.253Z,25.40
2022-08-14T23:09:00.526Z,25.40
2022-08-14T23:10:34.576Z,25.40
2022-08-14T23:13:05.310Z,25.40
2022-08-14T23:15:35.133Z,25.40
2022-08-14T23:18:06.195Z,25.40
2022-08-14T23:20:36.384Z,25.30
2022-08-14T23:23:13.087Z,25.30
2022-08-14T23:26:00.496Z,25.30
2022-08-14T23:28:56.825Z,25.20
2022-08-14T23:31:35.798Z,25.20
2022-08-14T23:34:09.524Z,25.20
2022-08-14T23:36:54.030Z,25.10
2022-08-14T23:39:30.016Z,25.20
2022-08-14T23:42:03.807Z,25.10
2022-08-14T23:44:35.374Z,25.10
2022-08-14T23:47:11.922Z,25.10
2022-08-14T23:50:00.201Z,25.10
2022-08-14T23:53:04.178Z,25.00
2022-08-14T23:55:21.053Z,25.00
2022-08-14T23:57:58.169Z,25.00
